Rechercher aéroport 
image banner adimage banner ad
image banner ad

DAAE - Bejaia / Soummam-Abane Ramdane

Situé à Bejaia, Algeria

ICAO - DAAE, IATA - BJA

Données fournies par Airmate  

Information générale

Coordonnées: N36°42'43" E5°4'10"
Élévation : 19 feet MSL.
 
Voir autres Aéroports à Béjaïa Province

Données opérationnelles

Accessible au public
Heure actuelle UTC:
Heure actuelle locale:
Météo
METAR: DAAE 250100Z 30005KT CAVOK 22/13 Q1014
TAF: TAF DAAE 242300Z 2500/2524 24006KT CAVOK BECMG 2509/2512 31014KT PROB30 TEMPO 2512/2518 29015G30KT 5000 -TSRA FEW023CB
Voir NOTAMs / SUP AIP / TFR affectant cet aéroport [VIEW]
Fréquences de communication: [VIEW]

Pistes:

Identifiant RWYQFULongueur (ft)Largeur (ft)SurfaceLDA (ft)
0882°7874148ASP
26262°7874148

Coordonnées de l'aéroport

Adresse: Bejaia Algeria

Vue satellite de DAAE